Aeroboteco Virtual Airlines! Uma nuvem a frente.



 INFORMAÇÕES METEOROLÓGICAS
METAR FOR SBBW
ADDS - METARS form results

(0917 UTC 24 June 2019)
Data provider http://aviationweather.gov/metar/data/
 
Forecast for: SBBW (BERRA DO GARCAS , BR)
Text: TAF SBBW 240400Z 2406/2418 00000KT CAVOK TN15/2408Z TX31/2417Z
Forecast period: 0600 to 1400 UTC 24 June 2019
Forecast type: FROM: standard forecast or significant change
Winds: calm
Visibility: 6 or more miles 10+ km)
Ceiling: unknown
Clouds: missing
Weather: no significant weather forecast for this period
Text: BECMG 2414/2416 06005KT RMK PFF
Forecast period: 1400 to 1800 UTC 24 June 2019
Forecast type: BECOMING: Conditions expected to become as follows by 1600 UTC 24 June 2019
Winds: from the ENE (60 degrees) at 6 MPH (5 knots; 2.6 m/s)
Visibility: 6 or more miles 10+ km)
Ceiling: unknown
Clouds: missing
Weather: no significant weather forecast for this period

 MAPA DO AEROPORTO

 INFORMAÇÕES DA PISTA
Pista 7 Tamanho da pista 5243 ft Largura da pista 98 ft
Elevação da pista 0 ft Ranhura da pista 0 ft Proa da pista 0
Pista 25 Tamanho da pista 5243 ft Largura da pista 98 ft
Elevação da pista 0 ft Ranhura da pista 0 ft Proa da pista 0

 FREQUÊNCIAS DO AEROPORTO
Tipo AFIS Nome GARCAS RDO Frequência 125.9 MHZ

 AUXÍLIOS DE NAVEGAÇÃO PRÓXIMOS AO AEROPORTO
Tipo VOR-DME Nome Garcas Frequência 113300 KHZ
Tipo NDB Nome Garcas Frequência 320 KHZ